sensor_id;sensor_type;location;lat;lon;timestamp;temperature;humidity
64209;DHT22;50527;52.414;13.226;2023-09-18T00:02:06;17.80;94.00
64209;DHT22;50527;52.414;13.226;2023-09-18T00:04:32;17.80;94.10
64209;DHT22;50527;52.414;13.226;2023-09-18T00:06:59;17.80;94.10
64209;DHT22;50527;52.414;13.226;2023-09-18T00:09:25;17.70;94.30
64209;DHT22;50527;52.414;13.226;2023-09-18T00:11:50;17.80;94.30
64209;DHT22;50527;52.414;13.226;2023-09-18T00:14:16;17.80;94.50
64209;DHT22;50527;52.414;13.226;2023-09-18T00:16:42;17.80;94.60
64209;DHT22;50527;52.414;13.226;2023-09-18T00:19:07;17.70;94.60
64209;DHT22;50527;52.414;13.226;2023-09-18T00:21:33;17.70;94.50
64209;DHT22;50527;52.414;13.226;2023-09-18T00:23:59;17.70;94.50
64209;DHT22;50527;52.414;13.226;2023-09-18T00:26:25;17.70;94.60
64209;DHT22;50527;52.414;13.226;2023-09-18T00:28:50;17.80;94.50
64209;DHT22;50527;52.414;13.226;2023-09-18T00:31:16;17.80;94.50
64209;DHT22;50527;52.414;13.226;2023-09-18T00:33:41;17.80;94.40
64209;DHT22;50527;52.414;13.226;2023-09-18T00:36:07;17.70;94.40
64209;DHT22;50527;52.414;13.226;2023-09-18T00:38:32;17.70;94.40
64209;DHT22;50527;52.414;13.226;2023-09-18T00:40:58;17.70;94.40
64209;DHT22;50527;52.414;13.226;2023-09-18T00:43:23;17.70;94.40
64209;DHT22;50527;52.414;13.226;2023-09-18T00:45:49;17.70;94.40
64209;DHT22;50527;52.414;13.226;2023-09-18T00:48:16;17.60;94.40
64209;DHT22;50527;52.414;13.226;2023-09-18T00:50:44;17.60;94.40
64209;DHT22;50527;52.414;13.226;2023-09-18T00:53:11;17.60;94.50
64209;DHT22;50527;52.414;13.226;2023-09-18T00:55:38;17.60;94.50
64209;DHT22;50527;52.414;13.226;2023-09-18T00:58:06;17.60;94.50
64209;DHT22;50527;52.414;13.226;2023-09-18T01:00:32;17.60;94.50
64209;DHT22;50527;52.414;13.226;2023-09-18T01:02:57;17.50;94.50
64209;DHT22;50527;52.414;13.226;2023-09-18T01:05:23;17.50;94.50
64209;DHT22;50527;52.414;13.226;2023-09-18T01:07:49;17.50;94.60
64209;DHT22;50527;52.414;13.226;2023-09-18T01:10:14;17.50;94.60
64209;DHT22;50527;52.414;13.226;2023-09-18T01:12:47;17.50;94.70
64209;DHT22;50527;52.414;13.226;2023-09-18T01:15:17;17.40;94.50
64209;DHT22;50527;52.414;13.226;2023-09-18T01:17:45;17.30;94.70
64209;DHT22;50527;52.414;13.226;2023-09-18T01:20:11;17.40;94.80
64209;DHT22;50527;52.414;13.226;2023-09-18T01:22:37;17.30;94.80
64209;DHT22;50527;52.414;13.226;2023-09-18T01:25:03;17.40;94.90
64209;DHT22;50527;52.414;13.226;2023-09-18T01:27:28;17.40;94.90
64209;DHT22;50527;52.414;13.226;2023-09-18T01:29:54;17.40;94.90
64209;DHT22;50527;52.414;13.226;2023-09-18T01:32:21;17.30;94.90
64209;DHT22;50527;52.414;13.226;2023-09-18T01:34:51;17.30;94.90
64209;DHT22;50527;52.414;13.226;2023-09-18T01:37:20;17.30;95.30
64209;DHT22;50527;52.414;13.226;2023-09-18T01:39:48;17.30;95.00
64209;DHT22;50527;52.414;13.226;2023-09-18T01:42:14;17.20;95.10
64209;DHT22;50527;52.414;13.226;2023-09-18T01:44:40;17.20;95.10
64209;DHT22;50527;52.414;13.226;2023-09-18T01:47:08;17.20;95.20
64209;DHT22;50527;52.414;13.226;2023-09-18T01:49:35;17.10;95.30
64209;DHT22;50527;52.414;13.226;2023-09-18T01:52:02;17.10;95.30
64209;DHT22;50527;52.414;13.226;2023-09-18T01:54:29;17.20;95.40
64209;DHT22;50527;52.414;13.226;2023-09-18T01:56:55;17.20;95.20
64209;DHT22;50527;52.414;13.226;2023-09-18T01:59:21;17.10;95.20
64209;DHT22;50527;52.414;13.226;2023-09-18T02:01:47;17.10;95.30
64209;DHT22;50527;52.414;13.226;2023-09-18T02:04:13;17.10;95.30
64209;DHT22;50527;52.414;13.226;2023-09-18T02:06:38;17.00;95.30
64209;DHT22;50527;52.414;13.226;2023-09-18T02:09:05;17.00;95.40
64209;DHT22;50527;52.414;13.226;2023-09-18T02:11:30;17.00;95.30
64209;DHT22;50527;52.414;13.226;2023-09-18T02:13:56;17.00;95.60
64209;DHT22;50527;52.414;13.226;2023-09-18T02:16:22;17.00;95.60
64209;DHT22;50527;52.414;13.226;2023-09-18T02:18:47;17.00;95.70
64209;DHT22;50527;52.414;13.226;2023-09-18T02:21:19;17.00;95.80
64209;DHT22;50527;52.414;13.226;2023-09-18T02:23:45;16.90;95.70
64209;DHT22;50527;52.414;13.226;2023-09-18T02:26:11;16.90;95.90
64209;DHT22;50527;52.414;13.226;2023-09-18T02:28:36;16.90;95.90
64209;DHT22;50527;52.414;13.226;2023-09-18T02:31:02;16.90;95.90
64209;DHT22;50527;52.414;13.226;2023-09-18T02:33:28;16.90;95.90
64209;DHT22;50527;52.414;13.226;2023-09-18T02:35:53;16.90;95.80
64209;DHT22;50527;52.414;13.226;2023-09-18T02:38:19;16.90;95.80
64209;DHT22;50527;52.414;13.226;2023-09-18T02:40:44;16.90;95.90
64209;DHT22;50527;52.414;13.226;2023-09-18T02:43:09;16.80;95.90
64209;DHT22;50527;52.414;13.226;2023-09-18T02:45:35;16.80;96.10
64209;DHT22;50527;52.414;13.226;2023-09-18T02:48:00;16.80;96.10
64209;DHT22;50527;52.414;13.226;2023-09-18T02:50:26;16.80;96.00
64209;DHT22;50527;52.414;13.226;2023-09-18T02:52:51;16.80;96.10
64209;DHT22;50527;52.414;13.226;2023-09-18T02:55:17;16.70;96.20
64209;DHT22;50527;52.414;13.226;2023-09-18T02:57:42;16.70;96.20
64209;DHT22;50527;52.414;13.226;2023-09-18T03:00:08;16.70;96.30
64209;DHT22;50527;52.414;13.226;2023-09-18T03:02:34;16.70;96.30
64209;DHT22;50527;52.414;13.226;2023-09-18T03:05:01;16.60;96.20
64209;DHT22;50527;52.414;13.226;2023-09-18T03:07:26;16.70;96.40
64209;DHT22;50527;52.414;13.226;2023-09-18T03:09:54;16.60;96.50
64209;DHT22;50527;52.414;13.226;2023-09-18T03:12:20;16.60;96.50
64209;DHT22;50527;52.414;13.226;2023-09-18T03:14:45;16.60;96.50
64209;DHT22;50527;52.414;13.226;2023-09-18T03:17:12;16.50;96.60
64209;DHT22;50527;52.414;13.226;2023-09-18T03:19:37;16.50;96.70
64209;DHT22;50527;52.414;13.226;2023-09-18T03:22:03;16.50;96.80
64209;DHT22;50527;52.414;13.226;2023-09-18T03:24:28;16.50;96.80
64209;DHT22;50527;52.414;13.226;2023-09-18T03:26:54;16.50;96.70
64209;DHT22;50527;52.414;13.226;2023-09-18T03:29:19;16.50;96.80
64209;DHT22;50527;52.414;13.226;2023-09-18T03:31:45;16.50;96.70
64209;DHT22;50527;52.414;13.226;2023-09-18T03:34:10;16.50;96.90
64209;DHT22;50527;52.414;13.226;2023-09-18T03:36:36;16.50;97.00
64209;DHT22;50527;52.414;13.226;2023-09-18T03:39:02;16.50;96.90
64209;DHT22;50527;52.414;13.226;2023-09-18T03:41:29;16.40;96.90
64209;DHT22;50527;52.414;13.226;2023-09-18T03:44:02;16.40;97.10
64209;DHT22;50527;52.414;13.226;2023-09-18T03:46:27;16.40;97.10
64209;DHT22;50527;52.414;13.226;2023-09-18T03:48:52;16.40;97.30
64209;DHT22;50527;52.414;13.226;2023-09-18T03:51:18;16.40;97.30
64209;DHT22;50527;52.414;13.226;2023-09-18T03:53:45;16.40;97.20
64209;DHT22;50527;52.414;13.226;2023-09-18T03:56:11;16.40;97.40
64209;DHT22;50527;52.414;13.226;2023-09-18T03:58:36;16.50;97.60
64209;DHT22;50527;52.414;13.226;2023-09-18T04:01:02;16.40;97.60
64209;DHT22;50527;52.414;13.226;2023-09-18T04:03:27;16.50;97.60
64209;DHT22;50527;52.414;13.226;2023-09-18T04:05:52;16.50;97.50
64209;DHT22;50527;52.414;13.226;2023-09-18T04:08:18;16.40;97.30
64209;DHT22;50527;52.414;13.226;2023-09-18T04:10:44;16.50;97.50
64209;DHT22;50527;52.414;13.226;2023-09-18T04:13:10;16.50;97.50
64209;DHT22;50527;52.414;13.226;2023-09-18T04:15:36;16.50;97.50
64209;DHT22;50527;52.414;13.226;2023-09-18T04:18:04;16.50;97.50
64209;DHT22;50527;52.414;13.226;2023-09-18T04:20:30;16.50;97.40
64209;DHT22;50527;52.414;13.226;2023-09-18T04:23:24;16.50;97.40
64209;DHT22;50527;52.414;13.226;2023-09-18T04:25:50;16.50;97.40
64209;DHT22;50527;52.414;13.226;2023-09-18T04:28:17;16.40;97.50
64209;DHT22;50527;52.414;13.226;2023-09-18T04:30:44;16.40;97.40
64209;DHT22;50527;52.414;13.226;2023-09-18T04:33:10;16.40;97.20
64209;DHT22;50527;52.414;13.226;2023-09-18T04:35:37;16.40;97.50
64209;DHT22;50527;52.414;13.226;2023-09-18T04:38:05;16.40;97.50
64209;DHT22;50527;52.414;13.226;2023-09-18T04:40:31;16.40;97.50
64209;DHT22;50527;52.414;13.226;2023-09-18T04:43:01;16.40;97.20
64209;DHT22;50527;52.414;13.226;2023-09-18T04:45:26;16.40;97.50
64209;DHT22;50527;52.414;13.226;2023-09-18T04:47:53;16.40;97.30
64209;DHT22;50527;52.414;13.226;2023-09-18T04:50:19;16.30;97.30
64209;DHT22;50527;52.414;13.226;2023-09-18T04:52:45;16.30;97.50
64209;DHT22;50527;52.414;13.226;2023-09-18T04:55:10;16.30;97.60
64209;DHT22;50527;52.414;13.226;2023-09-18T04:57:37;16.20;97.60
64209;DHT22;50527;52.414;13.226;2023-09-18T05:00:03;16.30;97.80
64209;DHT22;50527;52.414;13.226;2023-09-18T05:02:33;16.30;97.80
64209;DHT22;50527;52.414;13.226;2023-09-18T05:05:00;16.30;97.90
64209;DHT22;50527;52.414;13.226;2023-09-18T05:07:25;16.30;97.70
64209;DHT22;50527;52.414;13.226;2023-09-18T05:09:51;16.40;97.90
64209;DHT22;50527;52.414;13.226;2023-09-18T05:12:16;16.40;97.80
64209;DHT22;50527;52.414;13.226;2023-09-18T05:14:43;16.40;97.90
64209;DHT22;50527;52.414;13.226;2023-09-18T05:17:14;16.50;97.80
64209;DHT22;50527;52.414;13.226;2023-09-18T05:19:40;16.60;97.70
64209;DHT22;50527;52.414;13.226;2023-09-18T05:22:06;16.60;97.60
64209;DHT22;50527;52.414;13.226;2023-09-18T05:24:32;16.60;97.60
64209;DHT22;50527;52.414;13.226;2023-09-18T05:26:57;16.60;97.40
64209;DHT22;50527;52.414;13.226;2023-09-18T05:29:23;16.70;97.30
64209;DHT22;50527;52.414;13.226;2023-09-18T05:31:49;16.80;97.20
64209;DHT22;50527;52.414;13.226;2023-09-18T05:34:14;16.80;97.10
64209;DHT22;50527;52.414;13.226;2023-09-18T05:36:40;16.80;97.00
64209;DHT22;50527;52.414;13.226;2023-09-18T05:39:06;16.90;97.00
64209;DHT22;50527;52.414;13.226;2023-09-18T05:41:37;16.90;96.90
64209;DHT22;50527;52.414;13.226;2023-09-18T05:44:02;17.00;97.10
64209;DHT22;50527;52.414;13.226;2023-09-18T05:46:30;17.10;96.80
64209;DHT22;50527;52.414;13.226;2023-09-18T05:48:56;17.10;96.40
64209;DHT22;50527;52.414;13.226;2023-09-18T05:51:22;17.20;96.20
64209;DHT22;50527;52.414;13.226;2023-09-18T05:53:48;17.30;96.10
64209;DHT22;50527;52.414;13.226;2023-09-18T05:56:13;17.30;96.00
64209;DHT22;50527;52.414;13.226;2023-09-18T05:58:39;17.40;95.80
64209;DHT22;50527;52.414;13.226;2023-09-18T06:01:06;17.40;95.60
64209;DHT22;50527;52.414;13.226;2023-09-18T06:03:31;17.40;95.70
64209;DHT22;50527;52.414;13.226;2023-09-18T06:06:01;17.50;95.60
64209;DHT22;50527;52.414;13.226;2023-09-18T06:08:26;17.50;95.60
64209;DHT22;50527;52.414;13.226;2023-09-18T06:10:53;17.50;95.50
64209;DHT22;50527;52.414;13.226;2023-09-18T06:13:20;17.60;95.70
64209;DHT22;50527;52.414;13.226;2023-09-18T06:15:46;17.60;95.80
64209;DHT22;50527;52.414;13.226;2023-09-18T06:18:11;17.70;95.70
64209;DHT22;50527;52.414;13.226;2023-09-18T06:20:37;17.90;95.40
64209;DHT22;50527;52.414;13.226;2023-09-18T06:23:03;18.00;94.90
64209;DHT22;50527;52.414;13.226;2023-09-18T06:25:29;18.10;94.80
64209;DHT22;50527;52.414;13.226;2023-09-18T06:27:56;18.30;94.30
64209;DHT22;50527;52.414;13.226;2023-09-18T06:30:22;18.60;93.80
64209;DHT22;50527;52.414;13.226;2023-09-18T06:32:48;19.20;92.20
64209;DHT22;50527;52.414;13.226;2023-09-18T06:35:13;19.20;91.70
64209;DHT22;50527;52.414;13.226;2023-09-18T06:37:39;19.10;91.80
64209;DHT22;50527;52.414;13.226;2023-09-18T06:40:04;18.90;92.10
64209;DHT22;50527;52.414;13.226;2023-09-18T06:42:31;18.90;92.50
64209;DHT22;50527;52.414;13.226;2023-09-18T06:44:57;18.80;93.10
64209;DHT22;50527;52.414;13.226;2023-09-18T06:47:23;18.70;93.30
64209;DHT22;50527;52.414;13.226;2023-09-18T06:49:49;18.80;93.10
64209;DHT22;50527;52.414;13.226;2023-09-18T06:52:16;18.90;93.10
64209;DHT22;50527;52.414;13.226;2023-09-18T06:54:42;18.90;93.00
64209;DHT22;50527;52.414;13.226;2023-09-18T06:57:09;18.90;93.10
64209;DHT22;50527;52.414;13.226;2023-09-18T06:59:35;19.00;93.20
64209;DHT22;50527;52.414;13.226;2023-09-18T07:02:01;19.10;92.80
64209;DHT22;50527;52.414;13.226;2023-09-18T07:04:26;19.30;92.50
64209;DHT22;50527;52.414;13.226;2023-09-18T07:06:52;19.40;92.20
64209;DHT22;50527;52.414;13.226;2023-09-18T07:09:19;19.80;91.50
64209;DHT22;50527;52.414;13.226;2023-09-18T07:11:45;20.30;90.30
64209;DHT22;50527;52.414;13.226;2023-09-18T07:14:10;20.90;87.80
64209;DHT22;50527;52.414;13.226;2023-09-18T07:16:36;21.40;86.20
64209;DHT22;50527;52.414;13.226;2023-09-18T07:19:01;22.50;81.50
64209;DHT22;50527;52.414;13.226;2023-09-18T07:21:30;23.80;76.40
64209;DHT22;50527;52.414;13.226;2023-09-18T07:23:55;24.10;72.60
64209;DHT22;50527;52.414;13.226;2023-09-18T07:26:21;23.60;73.00
64209;DHT22;50527;52.414;13.226;2023-09-18T07:28:46;23.50;73.20
64209;DHT22;50527;52.414;13.226;2023-09-18T07:31:12;25.00;71.00
64209;DHT22;50527;52.414;13.226;2023-09-18T07:33:40;27.60;62.90
64209;DHT22;50527;52.414;13.226;2023-09-18T07:36:06;29.60;56.40
64209;DHT22;50527;52.414;13.226;2023-09-18T07:38:31;28.60;55.80
64209;DHT22;50527;52.414;13.226;2023-09-18T07:40:57;27.80;56.80
64209;DHT22;50527;52.414;13.226;2023-09-18T07:43:24;26.60;59.50
64209;DHT22;50527;52.414;13.226;2023-09-18T07:45:50;26.10;62.00
64209;DHT22;50527;52.414;13.226;2023-09-18T07:48:16;25.60;63.00
64209;DHT22;50527;52.414;13.226;2023-09-18T07:50:45;25.00;65.10
64209;DHT22;50527;52.414;13.226;2023-09-18T07:53:11;24.20;69.10
64209;DHT22;50527;52.414;13.226;2023-09-18T07:55:36;23.80;70.50
64209;DHT22;50527;52.414;13.226;2023-09-18T07:58:02;23.20;71.50
64209;DHT22;50527;52.414;13.226;2023-09-18T08:00:29;23.00;73.10
64209;DHT22;50527;52.414;13.226;2023-09-18T08:02:55;22.90;74.60
64209;DHT22;50527;52.414;13.226;2023-09-18T08:05:27;22.70;75.00
64209;DHT22;50527;52.414;13.226;2023-09-18T08:07:54;22.70;76.60
64209;DHT22;50527;52.414;13.226;2023-09-18T08:10:22;22.80;76.40
64209;DHT22;50527;52.414;13.226;2023-09-18T08:12:48;22.80;77.00
64209;DHT22;50527;52.414;13.226;2023-09-18T08:15:15;22.80;76.40
64209;DHT22;50527;52.414;13.226;2023-09-18T08:17:40;22.80;75.80
64209;DHT22;50527;52.414;13.226;2023-09-18T08:20:08;22.80;76.40
64209;DHT22;50527;52.414;13.226;2023-09-18T08:22:38;22.90;75.20
64209;DHT22;50527;52.414;13.226;2023-09-18T08:25:04;23.10;74.90
64209;DHT22;50527;52.414;13.226;2023-09-18T08:27:30;23.20;75.20
64209;DHT22;50527;52.414;13.226;2023-09-18T08:29:56;23.20;74.00
64209;DHT22;50527;52.414;13.226;2023-09-18T08:32:21;23.20;74.30
64209;DHT22;50527;52.414;13.226;2023-09-18T08:34:47;23.20;72.80
64209;DHT22;50527;52.414;13.226;2023-09-18T08:37:12;23.40;72.80
64209;DHT22;50527;52.414;13.226;2023-09-18T08:39:38;23.50;73.10
64209;DHT22;50527;52.414;13.226;2023-09-18T08:42:04;23.50;73.50
64209;DHT22;50527;52.414;13.226;2023-09-18T08:44:31;23.60;73.70
64209;DHT22;50527;52.414;13.226;2023-09-18T08:46:57;23.70;73.40
64209;DHT22;50527;52.414;13.226;2023-09-18T08:49:23;23.90;73.40
64209;DHT22;50527;52.414;13.226;2023-09-18T08:51:50;24.10;73.00
64209;DHT22;50527;52.414;13.226;2023-09-18T08:54:16;24.40;71.90
64209;DHT22;50527;52.414;13.226;2023-09-18T08:56:42;24.80;71.00
64209;DHT22;50527;52.414;13.226;2023-09-18T08:59:07;25.40;69.10
64209;DHT22;50527;52.414;13.226;2023-09-18T09:01:33;25.70;66.00
64209;DHT22;50527;52.414;13.226;2023-09-18T09:03:58;25.40;66.20
64209;DHT22;50527;52.414;13.226;2023-09-18T09:06:25;25.20;67.60
64209;DHT22;50527;52.414;13.226;2023-09-18T09:08:51;25.00;67.80
64209;DHT22;50527;52.414;13.226;2023-09-18T09:11:17;24.80;69.60
64209;DHT22;50527;52.414;13.226;2023-09-18T09:13:43;24.80;69.50
64209;DHT22;50527;52.414;13.226;2023-09-18T09:16:11;24.80;68.70
64209;DHT22;50527;52.414;13.226;2023-09-18T09:18:50;24.80;69.70
64209;DHT22;50527;52.414;13.226;2023-09-18T09:21:15;24.90;69.60
64209;DHT22;50527;52.414;13.226;2023-09-18T09:23:52;25.00;69.00
64209;DHT22;50527;52.414;13.226;2023-09-18T09:26:19;25.00;69.20
64209;DHT22;50527;52.414;13.226;2023-09-18T09:28:46;25.00;69.10
64209;DHT22;50527;52.414;13.226;2023-09-18T09:31:12;25.30;69.30
64209;DHT22;50527;52.414;13.226;2023-09-18T09:33:51;25.70;68.40
64209;DHT22;50527;52.414;13.226;2023-09-18T09:36:21;25.80;65.90
64209;DHT22;50527;52.414;13.226;2023-09-18T09:38:47;25.70;65.60
64209;DHT22;50527;52.414;13.226;2023-09-18T09:41:16;25.60;66.40
64209;DHT22;50527;52.414;13.226;2023-09-18T09:43:43;25.40;67.10
64209;DHT22;50527;52.414;13.226;2023-09-18T09:46:16;25.40;66.00
64209;DHT22;50527;52.414;13.226;2023-09-18T09:49:04;25.30;66.10
64209;DHT22;50527;52.414;13.226;2023-09-18T09:51:31;25.10;67.20
64209;DHT22;50527;52.414;13.226;2023-09-18T09:53:57;25.00;67.90
64209;DHT22;50527;52.414;13.226;2023-09-18T09:56:46;24.90;68.70
64209;DHT22;50527;52.414;13.226;2023-09-18T09:59:14;24.90;68.60
64209;DHT22;50527;52.414;13.226;2023-09-18T10:01:40;24.80;68.50
64209;DHT22;50527;52.414;13.226;2023-09-18T10:04:09;24.90;69.70
64209;DHT22;50527;52.414;13.226;2023-09-18T10:06:36;24.90;69.30
64209;DHT22;50527;52.414;13.226;2023-09-18T10:09:03;25.00;68.60
64209;DHT22;50527;52.414;13.226;2023-09-18T10:11:31;25.00;66.70
64209;DHT22;50527;52.414;13.226;2023-09-18T10:14:07;25.10;68.20
64209;DHT22;50527;52.414;13.226;2023-09-18T10:16:36;25.10;65.50
64209;DHT22;50527;52.414;13.226;2023-09-18T10:22:38;25.30;66.40
64209;DHT22;50527;52.414;13.226;2023-09-18T10:25:15;25.40;65.60
64209;DHT22;50527;52.414;13.226;2023-09-18T10:27:45;25.40;66.20
64209;DHT22;50527;52.414;13.226;2023-09-18T10:30:15;25.20;65.00
64209;DHT22;50527;52.414;13.226;2023-09-18T10:32:44;25.10;65.10
64209;DHT22;50527;52.414;13.226;2023-09-18T10:35:14;25.00;65.60
64209;DHT22;50527;52.414;13.226;2023-09-18T10:37:41;24.90;65.70
64209;DHT22;50527;52.414;13.226;2023-09-18T10:40:09;24.80;67.00
64209;DHT22;50527;52.414;13.226;2023-09-18T10:42:37;24.80;67.70
64209;DHT22;50527;52.414;13.226;2023-09-18T10:45:04;24.70;68.30
64209;DHT22;50527;52.414;13.226;2023-09-18T10:47:30;24.80;68.10
64209;DHT22;50527;52.414;13.226;2023-09-18T10:49:56;25.20;67.60
64209;DHT22;50527;52.414;13.226;2023-09-18T10:52:22;25.40;66.80
64209;DHT22;50527;52.414;13.226;2023-09-18T10:54:47;25.60;66.40
64209;DHT22;50527;52.414;13.226;2023-09-18T10:57:13;25.60;65.40
64209;DHT22;50527;52.414;13.226;2023-09-18T10:59:48;25.60;65.40
64209;DHT22;50527;52.414;13.226;2023-09-18T11:02:15;25.50;66.00
64209;DHT22;50527;52.414;13.226;2023-09-18T11:04:42;25.40;66.80
64209;DHT22;50527;52.414;13.226;2023-09-18T11:07:08;25.20;67.90
64209;DHT22;50527;52.414;13.226;2023-09-18T11:09:43;25.10;68.40
64209;DHT22;50527;52.414;13.226;2023-09-18T11:12:09;25.00;69.00
64209;DHT22;50527;52.414;13.226;2023-09-18T11:17:39;25.00;69.20
64209;DHT22;50527;52.414;13.226;2023-09-18T11:20:24;24.90;70.30
64209;DHT22;50527;52.414;13.226;2023-09-18T11:22:58;24.80;70.00
64209;DHT22;50527;52.414;13.226;2023-09-18T11:25:44;24.90;69.40
64209;DHT22;50527;52.414;13.226;2023-09-18T11:28:14;24.90;69.70
64209;DHT22;50527;52.414;13.226;2023-09-18T11:30:53;24.80;69.70
64209;DHT22;50527;52.414;13.226;2023-09-18T11:33:33;24.80;69.10
64209;DHT22;50527;52.414;13.226;2023-09-18T11:36:07;24.80;69.10
64209;DHT22;50527;52.414;13.226;2023-09-18T11:38:34;24.70;68.70
64209;DHT22;50527;52.414;13.226;2023-09-18T11:41:18;24.60;68.30
64209;DHT22;50527;52.414;13.226;2023-09-18T11:43:44;24.60;68.00
64209;DHT22;50527;52.414;13.226;2023-09-18T11:46:10;24.50;68.00
64209;DHT22;50527;52.414;13.226;2023-09-18T11:48:38;24.60;67.70
64209;DHT22;50527;52.414;13.226;2023-09-18T11:51:07;24.60;67.30
64209;DHT22;50527;52.414;13.226;2023-09-18T11:53:37;24.60;67.30
64209;DHT22;50527;52.414;13.226;2023-09-18T11:56:10;24.60;67.00
64209;DHT22;50527;52.414;13.226;2023-09-18T11:58:50;24.70;67.50
64209;DHT22;50527;52.414;13.226;2023-09-18T12:01:17;24.80;68.10
64209;DHT22;50527;52.414;13.226;2023-09-18T12:03:43;24.90;65.40
64209;DHT22;50527;52.414;13.226;2023-09-18T12:06:09;25.10;65.00
64209;DHT22;50527;52.414;13.226;2023-09-18T12:08:39;25.40;64.40
64209;DHT22;50527;52.414;13.226;2023-09-18T12:11:06;25.60;64.60
64209;DHT22;50527;52.414;13.226;2023-09-18T12:13:31;25.70;64.00
64209;DHT22;50527;52.414;13.226;2023-09-18T12:15:59;25.80;63.60
64209;DHT22;50527;52.414;13.226;2023-09-18T12:18:25;25.70;62.60
64209;DHT22;50527;52.414;13.226;2023-09-18T12:20:54;25.70;62.90
64209;DHT22;50527;52.414;13.226;2023-09-18T12:23:21;25.50;64.00
64209;DHT22;50527;52.414;13.226;2023-09-18T12:25:48;25.40;64.00
64209;DHT22;50527;52.414;13.226;2023-09-18T12:28:15;25.30;64.40
64209;DHT22;50527;52.414;13.226;2023-09-18T12:30:42;25.20;64.40
64209;DHT22;50527;52.414;13.226;2023-09-18T12:33:08;25.10;64.40
64209;DHT22;50527;52.414;13.226;2023-09-18T12:35:33;25.00;64.60
64209;DHT22;50527;52.414;13.226;2023-09-18T12:37:59;24.90;64.20
64209;DHT22;50527;52.414;13.226;2023-09-18T12:40:27;24.80;64.60
64209;DHT22;50527;52.414;13.226;2023-09-18T12:42:57;24.80;65.10
64209;DHT22;50527;52.414;13.226;2023-09-18T12:45:26;24.80;65.20
64209;DHT22;50527;52.414;13.226;2023-09-18T12:47:55;24.70;66.50
64209;DHT22;50527;52.414;13.226;2023-09-18T12:50:21;24.60;66.40
64209;DHT22;50527;52.414;13.226;2023-09-18T12:52:46;24.60;66.90
64209;DHT22;50527;52.414;13.226;2023-09-18T12:55:25;24.50;67.90
64209;DHT22;50527;52.414;13.226;2023-09-18T12:57:52;24.50;67.40
64209;DHT22;50527;52.414;13.226;2023-09-18T13:00:19;24.40;67.80
64209;DHT22;50527;52.414;13.226;2023-09-18T13:02:48;24.40;67.60
64209;DHT22;50527;52.414;13.226;2023-09-18T13:05:19;24.50;67.50
64209;DHT22;50527;52.414;13.226;2023-09-18T13:07:45;24.50;68.40
64209;DHT22;50527;52.414;13.226;2023-09-18T13:10:11;24.30;68.60
64209;DHT22;50527;52.414;13.226;2023-09-18T13:12:47;24.30;68.90
64209;DHT22;50527;52.414;13.226;2023-09-18T13:15:13;24.20;69.60
64209;DHT22;50527;52.414;13.226;2023-09-18T13:17:46;24.20;70.20
64209;DHT22;50527;52.414;13.226;2023-09-18T13:20:16;24.20;70.50
64209;DHT22;50527;52.414;13.226;2023-09-18T13:22:48;24.10;71.00
64209;DHT22;50527;52.414;13.226;2023-09-18T13:25:25;24.00;71.40
64209;DHT22;50527;52.414;13.226;2023-09-18T13:27:53;24.00;74.40
64209;DHT22;50527;52.414;13.226;2023-09-18T13:30:19;23.80;74.80
64209;DHT22;50527;52.414;13.226;2023-09-18T13:32:47;23.70;78.00
64209;DHT22;50527;52.414;13.226;2023-09-18T13:35:14;23.50;81.40
64209;DHT22;50527;52.414;13.226;2023-09-18T13:37:40;23.40;83.30
64209;DHT22;50527;52.414;13.226;2023-09-18T13:40:06;23.20;85.70
64209;DHT22;50527;52.414;13.226;2023-09-18T13:42:37;22.90;87.10
64209;DHT22;50527;52.414;13.226;2023-09-18T13:45:04;22.80;89.00
64209;DHT22;50527;52.414;13.226;2023-09-18T13:47:30;22.70;90.10
64209;DHT22;50527;52.414;13.226;2023-09-18T13:49:55;22.70;91.30
64209;DHT22;50527;52.414;13.226;2023-09-18T13:52:28;22.70;92.60
64209;DHT22;50527;52.414;13.226;2023-09-18T13:54:54;22.70;92.70
64209;DHT22;50527;52.414;13.226;2023-09-18T13:57:20;22.70;91.80
64209;DHT22;50527;52.414;13.226;2023-09-18T13:59:46;22.80;91.30
64209;DHT22;50527;52.414;13.226;2023-09-18T14:02:12;22.80;91.40
64209;DHT22;50527;52.414;13.226;2023-09-18T14:04:38;22.80;91.70
64209;DHT22;50527;52.414;13.226;2023-09-18T14:07:05;22.90;91.70
64209;DHT22;50527;52.414;13.226;2023-09-18T14:09:31;22.90;90.40
64209;DHT22;50527;52.414;13.226;2023-09-18T14:11:57;22.90;89.50
64209;DHT22;50527;52.414;13.226;2023-09-18T14:14:22;23.00;90.20
64209;DHT22;50527;52.414;13.226;2023-09-18T14:16:48;23.00;89.40
64209;DHT22;50527;52.414;13.226;2023-09-18T14:19:16;23.00;88.40
64209;DHT22;50527;52.414;13.226;2023-09-18T14:21:41;23.00;88.80
64209;DHT22;50527;52.414;13.226;2023-09-18T14:24:07;23.00;86.10
64209;DHT22;50527;52.414;13.226;2023-09-18T14:26:33;23.00;84.30
64209;DHT22;50527;52.414;13.226;2023-09-18T14:29:09;23.00;85.30
64209;DHT22;50527;52.414;13.226;2023-09-18T14:31:36;23.00;81.70
64209;DHT22;50527;52.414;13.226;2023-09-18T14:34:02;23.10;81.10
64209;DHT22;50527;52.414;13.226;2023-09-18T14:36:27;23.10;81.50
64209;DHT22;50527;52.414;13.226;2023-09-18T14:38:53;23.10;81.10
64209;DHT22;50527;52.414;13.226;2023-09-18T14:41:20;23.10;81.50
64209;DHT22;50527;52.414;13.226;2023-09-18T14:43:46;23.20;81.30
64209;DHT22;50527;52.414;13.226;2023-09-18T14:46:12;23.20;81.30
64209;DHT22;50527;52.414;13.226;2023-09-18T14:48:37;23.20;81.10
64209;DHT22;50527;52.414;13.226;2023-09-18T14:51:03;23.30;80.60
64209;DHT22;50527;52.414;13.226;2023-09-18T14:53:29;23.30;79.90
64209;DHT22;50527;52.414;13.226;2023-09-18T14:55:54;23.30;79.40
64209;DHT22;50527;52.414;13.226;2023-09-18T14:58:23;23.40;76.90
64209;DHT22;50527;52.414;13.226;2023-09-18T15:00:49;23.40;78.10
64209;DHT22;50527;52.414;13.226;2023-09-18T15:03:15;23.50;77.40
64209;DHT22;50527;52.414;13.226;2023-09-18T15:05:41;23.50;77.20
64209;DHT22;50527;52.414;13.226;2023-09-18T15:08:07;23.50;77.30
64209;DHT22;50527;52.414;13.226;2023-09-18T15:10:32;23.60;77.30
64209;DHT22;50527;52.414;13.226;2023-09-18T15:12:58;23.50;76.90
64209;DHT22;50527;52.414;13.226;2023-09-18T15:15:23;23.50;77.50
64209;DHT22;50527;52.414;13.226;2023-09-18T15:17:50;23.40;77.50
64209;DHT22;50527;52.414;13.226;2023-09-18T15:20:17;23.40;77.50
64209;DHT22;50527;52.414;13.226;2023-09-18T15:22:44;23.40;77.90